Strona główna
METAR-TAF:

METAR-TAF

Lotnisko :

Port lotniczy Bagdad

Bagdad, Irak

Szerokość geograficzna: 33-15-45N, Długość geograficzna: 44-14-04E, wysokość: 35 m

Aktualna obserwacja pogody

Raport powstał 23 minut temu, godzina 06:00 UTC
Wiatr 10 kt od zachodnio-północny zachód
Temperatura 13°C
Wilgotność 88%
Ciśnienie 1010 hPa
Widzialność: 1900 m
zmętnienie

METAR: ORBI 260600Z 29010KT 1900 HZ NSC 13/11 Q1010 NOSIG

czas: 09:23 (06:23 UTC)

Prognoza

Raport powstał 2 godziny i 23 minut temu, godzina 04:00 UTC
Prognoza ważna od 26 godzina 06 UTC do 27 godzina 06 UTC
Wiatr 10 kt od zachodnio-północny zachód
Widzialność: 8000 m

TAF: ORBI 260400Z 2606/2706 30010KT 8000 NSC

Obserwacja i prognoza pogody dla ponad 4000 lotnisk (raport METAR i TAF).

Dostępne stacje oznaczono żółtymi i czerwonymi punktami na mapie.

Najedź kursorem aby zobaczyć nazwę stacji.

Kliknij aby zobaczyć obserwacje i prognozy pogody.

Aby zmienić mapę: kliknij na zielony przycisk z czarnym krzyżykiem, aby powiększyć; na zielony przycisk z myślnikiem, aby pomniejszyć; na zielone strzałki, aby przejść do map sąsiednich.


METAR-TAF: